sensor_id;sensor_type;location;lat;lon;timestamp;pressure;altitude;pressure_sealevel;temperature;humidity
84935;BME280;75205;53.820;10.730;2024-02-26T00:01:46;100318.88;;;1.19;93.01
84935;BME280;75205;53.820;10.730;2024-02-26T00:04:12;100313.84;;;1.19;93.69
84935;BME280;75205;53.820;10.730;2024-02-26T00:06:40;100315.47;;;1.19;92.96
84935;BME280;75205;53.820;10.730;2024-02-26T00:09:09;100310.09;;;1.14;91.88
84935;BME280;75205;53.820;10.730;2024-02-26T00:11:36;100319.38;;;1.15;93.08
84935;BME280;75205;53.820;10.730;2024-02-26T00:14:03;100316.34;;;1.19;93.16
84935;BME280;75205;53.820;10.730;2024-02-26T00:16:30;100312.78;;;1.27;93.30
84935;BME280;75205;53.820;10.730;2024-02-26T00:18:57;100325.47;;;1.29;92.65
84935;BME280;75205;53.820;10.730;2024-02-26T00:21:23;100328.31;;;1.33;92.65
84935;BME280;75205;53.820;10.730;2024-02-26T00:23:50;100329.69;;;1.40;93.86
84935;BME280;75205;53.820;10.730;2024-02-26T00:26:17;100323.91;;;1.41;92.39
84935;BME280;75205;53.820;10.730;2024-02-26T00:28:43;100335.34;;;1.38;93.35
84935;BME280;75205;53.820;10.730;2024-02-26T00:31:10;100327.59;;;1.35;91.92
84935;BME280;75205;53.820;10.730;2024-02-26T00:33:36;100333.06;;;1.41;93.11
84935;BME280;75205;53.820;10.730;2024-02-26T00:36:04;100329.28;;;1.46;92.55
84935;BME280;75205;53.820;10.730;2024-02-26T00:38:30;100333.00;;;1.51;92.90
84935;BME280;75205;53.820;10.730;2024-02-26T00:40:57;100331.28;;;1.50;92.58
84935;BME280;75205;53.820;10.730;2024-02-26T00:43:23;100336.28;;;1.50;92.16
84935;BME280;75205;53.820;10.730;2024-02-26T00:45:49;100332.78;;;1.48;92.73
84935;BME280;75205;53.820;10.730;2024-02-26T00:48:18;100330.28;;;1.48;91.65
84935;BME280;75205;53.820;10.730;2024-02-26T00:50:44;100334.53;;;1.49;93.19
84935;BME280;75205;53.820;10.730;2024-02-26T00:53:11;100328.41;;;1.45;93.02
84935;BME280;75205;53.820;10.730;2024-02-26T00:55:37;100327.31;;;1.42;92.00
84935;BME280;75205;53.820;10.730;2024-02-26T00:58:04;100336.25;;;1.38;91.97
84935;BME280;75205;53.820;10.730;2024-02-26T01:00:30;100334.66;;;1.28;92.56
84935;BME280;75205;53.820;10.730;2024-02-26T01:02:56;100333.06;;;1.19;92.38
84935;BME280;75205;53.820;10.730;2024-02-26T01:05:23;100321.19;;;1.06;91.51
84935;BME280;75205;53.820;10.730;2024-02-26T01:07:50;100328.13;;;0.99;91.94
84935;BME280;75205;53.820;10.730;2024-02-26T01:10:16;100325.03;;;0.91;92.79
84935;BME280;75205;53.820;10.730;2024-02-26T01:12:43;100323.78;;;0.86;92.86
84935;BME280;75205;53.820;10.730;2024-02-26T01:15:09;100328.84;;;0.76;91.81
84935;BME280;75205;53.820;10.730;2024-02-26T01:17:36;100330.97;;;0.72;92.84
84935;BME280;75205;53.820;10.730;2024-02-26T01:20:04;100328.09;;;0.67;92.90
84935;BME280;75205;53.820;10.730;2024-02-26T01:22:30;100334.38;;;0.62;92.57
84935;BME280;75205;53.820;10.730;2024-02-26T01:24:56;100332.00;;;0.54;92.55
84935;BME280;75205;53.820;10.730;2024-02-26T01:27:23;100337.69;;;0.51;92.86
84935;BME280;75205;53.820;10.730;2024-02-26T01:29:53;100339.19;;;0.49;92.72
84935;BME280;75205;53.820;10.730;2024-02-26T01:32:19;100334.19;;;0.39;92.73
84935;BME280;75205;53.820;10.730;2024-02-26T01:34:45;100338.72;;;0.33;92.98
84935;BME280;75205;53.820;10.730;2024-02-26T01:37:12;100341.09;;;0.32;93.14
84935;BME280;75205;53.820;10.730;2024-02-26T01:39:39;100339.09;;;0.28;93.19
84935;BME280;75205;53.820;10.730;2024-02-26T01:42:07;100336.72;;;0.19;92.59
84935;BME280;75205;53.820;10.730;2024-02-26T01:44:34;100340.84;;;0.19;93.28
84935;BME280;75205;53.820;10.730;2024-02-26T01:47:00;100329.94;;;0.18;93.52
84935;BME280;75205;53.820;10.730;2024-02-26T01:49:27;100345.72;;;0.17;93.72
84935;BME280;75205;53.820;10.730;2024-02-26T01:51:54;100348.47;;;0.10;93.53
84935;BME280;75205;53.820;10.730;2024-02-26T01:54:21;100348.00;;;0.04;93.42
84935;BME280;75205;53.820;10.730;2024-02-26T01:56:47;100346.97;;;0.02;93.71
84935;BME280;75205;53.820;10.730;2024-02-26T01:59:15;100337.34;;;-0.04;93.52
84935;BME280;75205;53.820;10.730;2024-02-26T02:01:42;100344.47;;;-0.08;93.51
84935;BME280;75205;53.820;10.730;2024-02-26T02:04:10;100353.75;;;-0.07;92.96
84935;BME280;75205;53.820;10.730;2024-02-26T02:06:37;100359.38;;;-0.10;93.57
84935;BME280;75205;53.820;10.730;2024-02-26T02:09:04;100365.03;;;-0.12;92.44
84935;BME280;75205;53.820;10.730;2024-02-26T02:11:33;100358.00;;;-0.16;93.44
84935;BME280;75205;53.820;10.730;2024-02-26T02:13:59;100356.25;;;-0.17;93.75
84935;BME280;75205;53.820;10.730;2024-02-26T02:16:26;100367.28;;;-0.15;93.42
84935;BME280;75205;53.820;10.730;2024-02-26T02:18:52;100357.75;;;-0.19;93.76
84935;BME280;75205;53.820;10.730;2024-02-26T02:21:19;100355.47;;;-0.26;93.34
84935;BME280;75205;53.820;10.730;2024-02-26T02:23:46;100361.13;;;-0.29;93.86
84935;BME280;75205;53.820;10.730;2024-02-26T02:26:13;100359.22;;;-0.31;92.67
84935;BME280;75205;53.820;10.730;2024-02-26T02:28:40;100360.47;;;-0.36;92.65
84935;BME280;75205;53.820;10.730;2024-02-26T02:31:07;100363.50;;;-0.40;92.48
84935;BME280;75205;53.820;10.730;2024-02-26T02:33:34;100360.81;;;-0.42;93.20
84935;BME280;75205;53.820;10.730;2024-02-26T02:36:01;100360.34;;;-0.38;92.98
84935;BME280;75205;53.820;10.730;2024-02-26T02:38:27;100351.47;;;-0.34;93.32
84935;BME280;75205;53.820;10.730;2024-02-26T02:40:56;100354.44;;;-0.38;94.01
84935;BME280;75205;53.820;10.730;2024-02-26T02:43:22;100360.09;;;-0.41;93.39
84935;BME280;75205;53.820;10.730;2024-02-26T02:45:48;100358.19;;;-0.43;94.03
84935;BME280;75205;53.820;10.730;2024-02-26T02:48:15;100360.69;;;-0.43;92.78
84935;BME280;75205;53.820;10.730;2024-02-26T02:50:41;100358.72;;;-0.47;93.54
84935;BME280;75205;53.820;10.730;2024-02-26T02:53:08;100351.66;;;-0.51;93.63
84935;BME280;75205;53.820;10.730;2024-02-26T02:55:34;100354.69;;;-0.55;93.08
84935;BME280;75205;53.820;10.730;2024-02-26T02:58:01;100358.44;;;-0.60;93.81
84935;BME280;75205;53.820;10.730;2024-02-26T03:00:27;100358.28;;;-0.62;93.74
84935;BME280;75205;53.820;10.730;2024-02-26T03:02:54;100359.16;;;-0.61;94.33
84935;BME280;75205;53.820;10.730;2024-02-26T03:05:21;100362.41;;;-0.62;93.94
84935;BME280;75205;53.820;10.730;2024-02-26T03:07:47;100359.78;;;-0.64;93.21
84935;BME280;75205;53.820;10.730;2024-02-26T03:10:13;100364.94;;;-0.62;94.19
84935;BME280;75205;53.820;10.730;2024-02-26T03:12:40;100374.19;;;-0.61;93.81
84935;BME280;75205;53.820;10.730;2024-02-26T03:15:06;100376.44;;;-0.64;93.86
84935;BME280;75205;53.820;10.730;2024-02-26T03:17:33;100375.41;;;-0.66;94.50
84935;BME280;75205;53.820;10.730;2024-02-26T03:20:00;100378.44;;;-0.70;94.45
84935;BME280;75205;53.820;10.730;2024-02-26T03:22:26;100374.91;;;-0.72;94.27
84935;BME280;75205;53.820;10.730;2024-02-26T03:24:53;100376.41;;;-0.74;93.80
84935;BME280;75205;53.820;10.730;2024-02-26T03:27:19;100376.41;;;-0.74;93.96
84935;BME280;75205;53.820;10.730;2024-02-26T03:29:46;100369.34;;;-0.78;93.00
84935;BME280;75205;53.820;10.730;2024-02-26T03:32:14;100371.72;;;-0.80;94.07
84935;BME280;75205;53.820;10.730;2024-02-26T03:34:40;100381.16;;;-0.77;94.04
84935;BME280;75205;53.820;10.730;2024-02-26T03:37:07;100377.28;;;-0.74;93.76
84935;BME280;75205;53.820;10.730;2024-02-26T03:39:36;100380.94;;;-0.70;94.29
84935;BME280;75205;53.820;10.730;2024-02-26T03:42:03;100383.44;;;-0.70;94.41
84935;BME280;75205;53.820;10.730;2024-02-26T03:44:30;100381.91;;;-0.68;94.74
84935;BME280;75205;53.820;10.730;2024-02-26T03:46:56;100380.16;;;-0.69;94.66
84935;BME280;75205;53.820;10.730;2024-02-26T03:49:23;100383.03;;;-0.75;93.68
84935;BME280;75205;53.820;10.730;2024-02-26T03:51:49;100381.75;;;-0.80;94.33
84935;BME280;75205;53.820;10.730;2024-02-26T03:54:16;100388.13;;;-0.83;93.09
84935;BME280;75205;53.820;10.730;2024-02-26T03:56:42;100391.25;;;-0.86;94.46
84935;BME280;75205;53.820;10.730;2024-02-26T03:59:09;100393.50;;;-0.89;93.15
84935;BME280;75205;53.820;10.730;2024-02-26T04:01:35;100394.22;;;-0.90;92.98
84935;BME280;75205;53.820;10.730;2024-02-26T04:04:01;100408.09;;;-0.93;93.68
84935;BME280;75205;53.820;10.730;2024-02-26T04:06:28;100407.84;;;-0.96;93.35
84935;BME280;75205;53.820;10.730;2024-02-26T04:08:55;100403.84;;;-0.94;92.91
84935;BME280;75205;53.820;10.730;2024-02-26T04:11:21;100407.84;;;-0.96;94.34
84935;BME280;75205;53.820;10.730;2024-02-26T04:13:48;100412.56;;;-0.99;93.67
84935;BME280;75205;53.820;10.730;2024-02-26T04:16:17;100414.06;;;-1.01;93.01
84935;BME280;75205;53.820;10.730;2024-02-26T04:18:43;100416.56;;;-1.01;94.49
84935;BME280;75205;53.820;10.730;2024-02-26T04:21:10;100423.22;;;-1.02;93.81
84935;BME280;75205;53.820;10.730;2024-02-26T04:23:37;100421.44;;;-1.03;93.46
84935;BME280;75205;53.820;10.730;2024-02-26T04:26:04;100433.06;;;-1.03;93.52
84935;BME280;75205;53.820;10.730;2024-02-26T04:28:31;100438.38;;;-1.00;93.78
84935;BME280;75205;53.820;10.730;2024-02-26T04:30:57;100432.47;;;-1.01;93.52
84935;BME280;75205;53.820;10.730;2024-02-26T04:33:23;100437.09;;;-1.05;94.01
84935;BME280;75205;53.820;10.730;2024-02-26T04:35:50;100447.28;;;-1.12;94.25
84935;BME280;75205;53.820;10.730;2024-02-26T04:38:17;100446.78;;;-1.08;93.74
84935;BME280;75205;53.820;10.730;2024-02-26T04:40:44;100457.25;;;-1.04;94.22
84935;BME280;75205;53.820;10.730;2024-02-26T04:43:10;100464.75;;;-1.04;93.06
84935;BME280;75205;53.820;10.730;2024-02-26T04:45:36;100462.09;;;-1.05;93.46
84935;BME280;75205;53.820;10.730;2024-02-26T04:48:03;100466.56;;;-1.11;92.70
84935;BME280;75205;53.820;10.730;2024-02-26T04:50:29;100474.69;;;-1.14;93.43
84935;BME280;75205;53.820;10.730;2024-02-26T04:52:56;100473.34;;;-1.10;94.65
84935;BME280;75205;53.820;10.730;2024-02-26T04:55:22;100478.81;;;-1.14;93.72
84935;BME280;75205;53.820;10.730;2024-02-26T04:57:49;100480.28;;;-1.16;92.68
84935;BME280;75205;53.820;10.730;2024-02-26T05:00:15;100474.88;;;-1.21;93.47
84935;BME280;75205;53.820;10.730;2024-02-26T05:02:42;100487.00;;;-1.25;93.31
84935;BME280;75205;53.820;10.730;2024-02-26T05:05:09;100490.47;;;-1.23;94.54
84935;BME280;75205;53.820;10.730;2024-02-26T05:07:41;100492.38;;;-1.21;94.06
84935;BME280;75205;53.820;10.730;2024-02-26T05:10:08;100497.25;;;-1.22;94.41
84935;BME280;75205;53.820;10.730;2024-02-26T05:12:35;100498.59;;;-1.26;93.13
84935;BME280;75205;53.820;10.730;2024-02-26T05:15:02;100498.47;;;-1.27;94.14
84935;BME280;75205;53.820;10.730;2024-02-26T05:17:29;100502.00;;;-1.25;93.44
84935;BME280;75205;53.820;10.730;2024-02-26T05:19:55;100495.22;;;-1.27;93.94
84935;BME280;75205;53.820;10.730;2024-02-26T05:22:22;100505.34;;;-1.25;94.40
84935;BME280;75205;53.820;10.730;2024-02-26T05:24:48;100511.94;;;-1.17;93.41
84935;BME280;75205;53.820;10.730;2024-02-26T05:27:15;100507.09;;;-1.15;93.67
84935;BME280;75205;53.820;10.730;2024-02-26T05:29:41;100506.66;;;-1.20;94.37
84935;BME280;75205;53.820;10.730;2024-02-26T05:32:08;100507.22;;;-1.14;94.13
84935;BME280;75205;53.820;10.730;2024-02-26T05:34:34;100505.25;;;-1.08;94.43
84935;BME280;75205;53.820;10.730;2024-02-26T05:37:01;100513.78;;;-1.06;94.48
84935;BME280;75205;53.820;10.730;2024-02-26T05:39:27;100509.84;;;-1.12;94.48
84935;BME280;75205;53.820;10.730;2024-02-26T05:41:54;100517.81;;;-1.16;93.03
84935;BME280;75205;53.820;10.730;2024-02-26T05:44:22;100510.03;;;-1.19;93.31
84935;BME280;75205;53.820;10.730;2024-02-26T05:46:48;100516.38;;;-1.23;92.45
84935;BME280;75205;53.820;10.730;2024-02-26T05:49:14;100517.00;;;-1.25;93.85
84935;BME280;75205;53.820;10.730;2024-02-26T05:51:41;100517.88;;;-1.25;93.26
84935;BME280;75205;53.820;10.730;2024-02-26T05:54:08;100527.03;;;-1.25;92.86
84935;BME280;75205;53.820;10.730;2024-02-26T05:56:34;100532.75;;;-1.27;93.98
84935;BME280;75205;53.820;10.730;2024-02-26T05:59:01;100544.03;;;-1.21;93.38
84935;BME280;75205;53.820;10.730;2024-02-26T06:01:27;100548.09;;;-1.13;93.89
84935;BME280;75205;53.820;10.730;2024-02-26T06:03:54;100549.63;;;-1.15;93.08
84935;BME280;75205;53.820;10.730;2024-02-26T06:06:20;100546.09;;;-1.17;93.94
84935;BME280;75205;53.820;10.730;2024-02-26T06:08:49;100552.13;;;-1.15;92.51
84935;BME280;75205;53.820;10.730;2024-02-26T06:11:15;100556.38;;;-1.14;92.48
84935;BME280;75205;53.820;10.730;2024-02-26T06:13:42;100557.53;;;-1.11;92.17
84935;BME280;75205;53.820;10.730;2024-02-26T06:16:09;100569.59;;;-1.07;92.26
84935;BME280;75205;53.820;10.730;2024-02-26T06:18:35;100560.69;;;-1.03;93.11
84935;BME280;75205;53.820;10.730;2024-02-26T06:21:02;100571.00;;;-1.00;93.23
84935;BME280;75205;53.820;10.730;2024-02-26T06:23:29;100559.78;;;-0.95;92.48
84935;BME280;75205;53.820;10.730;2024-02-26T06:25:55;100567.69;;;-0.91;93.23
84935;BME280;75205;53.820;10.730;2024-02-26T06:28:21;100567.38;;;-0.85;93.00
84935;BME280;75205;53.820;10.730;2024-02-26T06:30:47;100569.66;;;-0.78;92.92
84935;BME280;75205;53.820;10.730;2024-02-26T06:33:14;100573.75;;;-0.70;94.28
84935;BME280;75205;53.820;10.730;2024-02-26T06:35:41;100572.53;;;-0.65;93.72
84935;BME280;75205;53.820;10.730;2024-02-26T06:38:08;100581.66;;;-0.66;92.96
84935;BME280;75205;53.820;10.730;2024-02-26T06:40:35;100579.53;;;-0.61;92.52
84935;BME280;75205;53.820;10.730;2024-02-26T06:43:01;100581.72;;;-0.56;93.16
84935;BME280;75205;53.820;10.730;2024-02-26T06:45:28;100585.38;;;-0.52;93.26
84935;BME280;75205;53.820;10.730;2024-02-26T06:47:55;100588.66;;;-0.43;93.58
84935;BME280;75205;53.820;10.730;2024-02-26T06:50:22;100596.88;;;-0.36;93.58
84935;BME280;75205;53.820;10.730;2024-02-26T06:52:49;100597.53;;;-0.28;93.00
84935;BME280;75205;53.820;10.730;2024-02-26T06:55:16;100602.47;;;-0.20;92.34
84935;BME280;75205;53.820;10.730;2024-02-26T06:57:42;100605.03;;;-0.10;92.40
84935;BME280;75205;53.820;10.730;2024-02-26T07:00:09;100609.06;;;-0.02;92.69
84935;BME280;75205;53.820;10.730;2024-02-26T07:02:41;100608.25;;;0.08;92.52
84935;BME280;75205;53.820;10.730;2024-02-26T07:05:07;100613.31;;;0.18;92.37
84935;BME280;75205;53.820;10.730;2024-02-26T07:07:34;100611.44;;;0.26;92.55
84935;BME280;75205;53.820;10.730;2024-02-26T07:10:00;100609.59;;;0.33;92.57
84935;BME280;75205;53.820;10.730;2024-02-26T07:12:30;100607.00;;;0.42;92.55
84935;BME280;75205;53.820;10.730;2024-02-26T07:14:57;100609.53;;;0.52;92.69
84935;BME280;75205;53.820;10.730;2024-02-26T07:17:24;100616.94;;;0.60;92.49
84935;BME280;75205;53.820;10.730;2024-02-26T07:19:50;100612.69;;;0.69;91.62
84935;BME280;75205;53.820;10.730;2024-02-26T07:22:17;100609.84;;;0.75;91.34
84935;BME280;75205;53.820;10.730;2024-02-26T07:24:43;100613.72;;;0.81;91.39
84935;BME280;75205;53.820;10.730;2024-02-26T07:27:10;100617.00;;;0.90;91.57
84935;BME280;75205;53.820;10.730;2024-02-26T07:29:36;100621.91;;;0.99;91.85
84935;BME280;75205;53.820;10.730;2024-02-26T07:32:03;100625.78;;;1.05;90.93
84935;BME280;75205;53.820;10.730;2024-02-26T07:34:30;100623.94;;;1.13;90.86
84935;BME280;75205;53.820;10.730;2024-02-26T07:36:57;100634.34;;;1.27;91.13
84935;BME280;75205;53.820;10.730;2024-02-26T07:39:23;100621.28;;;1.42;91.54
84935;BME280;75205;53.820;10.730;2024-02-26T07:41:50;100631.56;;;1.55;91.37
84935;BME280;75205;53.820;10.730;2024-02-26T07:44:19;100626.28;;;1.72;91.59
84935;BME280;75205;53.820;10.730;2024-02-26T07:46:46;100623.09;;;1.84;92.13
84935;BME280;75205;53.820;10.730;2024-02-26T07:49:13;100633.25;;;1.96;91.41
84935;BME280;75205;53.820;10.730;2024-02-26T07:51:39;100633.22;;;2.06;92.38
84935;BME280;75205;53.820;10.730;2024-02-26T07:54:06;100634.97;;;2.17;91.67
84935;BME280;75205;53.820;10.730;2024-02-26T07:56:32;100634.38;;;2.31;90.76
84935;BME280;75205;53.820;10.730;2024-02-26T07:58:59;100638.63;;;2.42;90.28
84935;BME280;75205;53.820;10.730;2024-02-26T08:01:25;100647.66;;;2.50;89.76
84935;BME280;75205;53.820;10.730;2024-02-26T08:03:53;100648.34;;;2.59;90.81
84935;BME280;75205;53.820;10.730;2024-02-26T08:06:19;100655.22;;;2.72;91.10
84935;BME280;75205;53.820;10.730;2024-02-26T08:08:46;100657.00;;;2.84;89.93
84935;BME280;75205;53.820;10.730;2024-02-26T08:11:15;100659.47;;;2.94;89.58
84935;BME280;75205;53.820;10.730;2024-02-26T08:13:42;100670.47;;;3.06;89.44
84935;BME280;75205;53.820;10.730;2024-02-26T08:16:08;100675.56;;;3.18;89.25
84935;BME280;75205;53.820;10.730;2024-02-26T08:18:35;100669.03;;;3.31;89.44
84935;BME280;75205;53.820;10.730;2024-02-26T08:21:02;100677.34;;;3.52;89.98
84935;BME280;75205;53.820;10.730;2024-02-26T08:23:29;100673.31;;;3.65;88.78
84935;BME280;75205;53.820;10.730;2024-02-26T08:25:55;100680.91;;;3.77;88.72
84935;BME280;75205;53.820;10.730;2024-02-26T08:28:22;100689.44;;;3.90;88.45
84935;BME280;75205;53.820;10.730;2024-02-26T08:30:48;100687.28;;;4.07;88.09
84935;BME280;75205;53.820;10.730;2024-02-26T08:33:15;100681.34;;;4.18;87.77
84935;BME280;75205;53.820;10.730;2024-02-26T08:35:41;100688.69;;;4.38;88.04
84935;BME280;75205;53.820;10.730;2024-02-26T08:38:08;100690.75;;;4.55;87.38
84935;BME280;75205;53.820;10.730;2024-02-26T08:40:34;100689.09;;;4.67;86.78
84935;BME280;75205;53.820;10.730;2024-02-26T08:43:01;100690.16;;;4.82;86.41
84935;BME280;75205;53.820;10.730;2024-02-26T08:45:27;100689.81;;;4.89;86.75
84935;BME280;75205;53.820;10.730;2024-02-26T08:47:56;100688.69;;;4.97;86.73
84935;BME280;75205;53.820;10.730;2024-02-26T08:50:22;100686.78;;;5.06;87.03
84935;BME280;75205;53.820;10.730;2024-02-26T08:52:48;100693.47;;;5.17;86.11
84935;BME280;75205;53.820;10.730;2024-02-26T08:55:17;100690.56;;;5.24;84.92
84935;BME280;75205;53.820;10.730;2024-02-26T08:57:43;100697.38;;;5.25;86.12
84935;BME280;75205;53.820;10.730;2024-02-26T09:00:10;100695.25;;;5.31;85.42
84935;BME280;75205;53.820;10.730;2024-02-26T09:02:37;100694.59;;;5.34;85.11
84935;BME280;75205;53.820;10.730;2024-02-26T09:05:09;100700.50;;;5.34;85.46
84935;BME280;75205;53.820;10.730;2024-02-26T09:07:36;100704.03;;;5.36;87.02
84935;BME280;75205;53.820;10.730;2024-02-26T09:10:03;100691.81;;;5.42;87.25
84935;BME280;75205;53.820;10.730;2024-02-26T09:12:29;100702.22;;;5.47;86.03
84935;BME280;75205;53.820;10.730;2024-02-26T09:14:56;100704.19;;;5.51;86.88
84935;BME280;75205;53.820;10.730;2024-02-26T09:17:23;100706.44;;;5.59;86.15
84935;BME280;75205;53.820;10.730;2024-02-26T09:19:50;100704.91;;;5.61;87.37
84935;BME280;75205;53.820;10.730;2024-02-26T09:22:16;100714.84;;;5.71;87.46
84935;BME280;75205;53.820;10.730;2024-02-26T09:24:44;100713.41;;;5.75;86.54
84935;BME280;75205;53.820;10.730;2024-02-26T09:27:10;100717.00;;;5.78;87.48
84935;BME280;75205;53.820;10.730;2024-02-26T09:29:37;100721.38;;;5.92;87.96
84935;BME280;75205;53.820;10.730;2024-02-26T09:32:03;100724.69;;;6.04;87.21
84935;BME280;75205;53.820;10.730;2024-02-26T09:34:30;100725.88;;;6.09;87.23
84935;BME280;75205;53.820;10.730;2024-02-26T09:36:57;100727.34;;;6.19;86.80
84935;BME280;75205;53.820;10.730;2024-02-26T09:39:37;100722.19;;;6.30;86.97
84935;BME280;75205;53.820;10.730;2024-02-26T09:42:04;100730.69;;;6.44;86.81
84935;BME280;75205;53.820;10.730;2024-02-26T09:44:31;100731.94;;;6.51;86.40
84935;BME280;75205;53.820;10.730;2024-02-26T09:47:01;100728.63;;;6.52;86.15
84935;BME280;75205;53.820;10.730;2024-02-26T09:49:29;100730.50;;;6.54;85.86
84935;BME280;75205;53.820;10.730;2024-02-26T09:51:56;100731.72;;;6.74;86.89
84935;BME280;75205;53.820;10.730;2024-02-26T09:54:22;100729.66;;;6.81;85.90
84935;BME280;75205;53.820;10.730;2024-02-26T09:56:52;100737.34;;;6.96;86.44
84935;BME280;75205;53.820;10.730;2024-02-26T09:59:29;100737.84;;;7.18;86.44
84935;BME280;75205;53.820;10.730;2024-02-26T10:02:02;100749.47;;;7.27;85.84
84935;BME280;75205;53.820;10.730;2024-02-26T10:04:29;100742.78;;;7.42;85.96
84935;BME280;75205;53.820;10.730;2024-02-26T10:06:56;100741.31;;;7.46;84.75
84935;BME280;75205;53.820;10.730;2024-02-26T10:09:26;100745.09;;;7.52;85.06
84935;BME280;75205;53.820;10.730;2024-02-26T10:11:53;100743.31;;;7.51;84.84
84935;BME280;75205;53.820;10.730;2024-02-26T10:14:19;100746.41;;;7.60;84.46
84935;BME280;75205;53.820;10.730;2024-02-26T10:16:46;100751.91;;;7.68;85.53
84935;BME280;75205;53.820;10.730;2024-02-26T10:19:24;100756.94;;;7.81;84.74
84935;BME280;75205;53.820;10.730;2024-02-26T10:21:54;100749.31;;;7.81;83.79
84935;BME280;75205;53.820;10.730;2024-02-26T10:24:21;100756.94;;;7.81;84.10
84935;BME280;75205;53.820;10.730;2024-02-26T10:26:47;100762.72;;;7.93;83.43
84935;BME280;75205;53.820;10.730;2024-02-26T10:29:13;100764.44;;;8.07;83.12
84935;BME280;75205;53.820;10.730;2024-02-26T10:31:43;100771.53;;;8.13;82.10
84935;BME280;75205;53.820;10.730;2024-02-26T10:34:10;100772.38;;;8.13;83.09
84935;BME280;75205;53.820;10.730;2024-02-26T10:36:36;100772.63;;;8.31;81.73
84935;BME280;75205;53.820;10.730;2024-02-26T10:39:17;100778.38;;;8.43;81.51
84935;BME280;75205;53.820;10.730;2024-02-26T10:41:44;100775.66;;;8.54;81.54
84935;BME280;75205;53.820;10.730;2024-02-26T10:44:11;100775.75;;;8.86;80.06
84935;BME280;75205;53.820;10.730;2024-02-26T10:46:44;100782.66;;;9.04;81.00
84935;BME280;75205;53.820;10.730;2024-02-26T10:49:15;100779.31;;;9.05;79.32
84935;BME280;75205;53.820;10.730;2024-02-26T10:51:51;100787.00;;;9.21;80.70
84935;BME280;75205;53.820;10.730;2024-02-26T10:54:18;100789.53;;;9.37;79.55
84935;BME280;75205;53.820;10.730;2024-02-26T10:56:46;100787.47;;;9.30;78.22
84935;BME280;75205;53.820;10.730;2024-02-26T10:59:13;100792.78;;;9.18;80.90
84935;BME280;75205;53.820;10.730;2024-02-26T11:01:40;100792.91;;;9.36;80.30
84935;BME280;75205;53.820;10.730;2024-02-26T11:04:08;100790.66;;;9.26;77.63
84935;BME280;75205;53.820;10.730;2024-02-26T11:06:35;100795.25;;;9.17;77.56
84935;BME280;75205;53.820;10.730;2024-02-26T11:09:02;100793.34;;;9.13;77.54
84935;BME280;75205;53.820;10.730;2024-02-26T11:11:30;100796.50;;;9.09;79.26
84935;BME280;75205;53.820;10.730;2024-02-26T11:13:58;100789.38;;;9.18;79.32
84935;BME280;75205;53.820;10.730;2024-02-26T11:16:25;100793.56;;;9.48;78.56
84935;BME280;75205;53.820;10.730;2024-02-26T11:18:52;100789.88;;;9.59;76.67
84935;BME280;75205;53.820;10.730;2024-02-26T11:21:21;100795.44;;;9.52;76.67
84935;BME280;75205;53.820;10.730;2024-02-26T11:24:11;100794.03;;;9.57;77.14
84935;BME280;75205;53.820;10.730;2024-02-26T11:26:41;100799.19;;;9.42;76.97
84935;BME280;75205;53.820;10.730;2024-02-26T11:29:12;100790.59;;;9.24;76.51
84935;BME280;75205;53.820;10.730;2024-02-26T11:31:40;100798.44;;;9.13;77.96
84935;BME280;75205;53.820;10.730;2024-02-26T11:34:07;100796.50;;;9.09;78.43
84935;BME280;75205;53.820;10.730;2024-02-26T11:36:35;100801.91;;;9.15;76.76
84935;BME280;75205;53.820;10.730;2024-02-26T11:39:03;100800.16;;;9.14;76.80
84935;BME280;75205;53.820;10.730;2024-02-26T11:41:30;100807.72;;;9.12;78.98
84935;BME280;75205;53.820;10.730;2024-02-26T11:46:27;100802.34;;;9.38;75.41
84935;BME280;75205;53.820;10.730;2024-02-26T11:48:55;100808.84;;;9.48;78.02
84935;BME280;75205;53.820;10.730;2024-02-26T11:51:26;100808.03;;;9.65;76.29
84935;BME280;75205;53.820;10.730;2024-02-26T11:53:53;100809.78;;;9.66;75.46
84935;BME280;75205;53.820;10.730;2024-02-26T11:59:48;100803.81;;;9.03;75.60
84935;BME280;75205;53.820;10.730;2024-02-26T12:05:00;100812.41;;;8.59;77.64
84935;BME280;75205;53.820;10.730;2024-02-26T12:07:26;100821.16;;;8.64;78.96
84935;BME280;75205;53.820;10.730;2024-02-26T12:09:53;100820.97;;;8.61;78.29
84935;BME280;75205;53.820;10.730;2024-02-26T12:12:39;100826.31;;;8.51;79.51
84935;BME280;75205;53.820;10.730;2024-02-26T12:15:05;100829.84;;;8.39;78.79
84935;BME280;75205;53.820;10.730;2024-02-26T12:17:34;100834.28;;;8.28;79.35
84935;BME280;75205;53.820;10.730;2024-02-26T12:20:08;100830.22;;;8.03;79.29
84935;BME280;75205;53.820;10.730;2024-02-26T12:22:36;100841.94;;;8.01;80.48
84935;BME280;75205;53.820;10.730;2024-02-26T12:25:05;100844.56;;;8.02;80.96
84935;BME280;75205;53.820;10.730;2024-02-26T12:27:31;100852.19;;;8.02;81.86
84935;BME280;75205;53.820;10.730;2024-02-26T12:29:59;100852.78;;;7.98;81.15
84935;BME280;75205;53.820;10.730;2024-02-26T12:32:25;100857.69;;;7.95;81.66
84935;BME280;75205;53.820;10.730;2024-02-26T12:34:52;100849.50;;;7.86;81.31
84935;BME280;75205;53.820;10.730;2024-02-26T12:37:19;100864.84;;;7.88;81.65
84935;BME280;75205;53.820;10.730;2024-02-26T12:39:45;100856.25;;;7.86;81.47
84935;BME280;75205;53.820;10.730;2024-02-26T12:42:12;100863.81;;;7.99;81.98
84935;BME280;75205;53.820;10.730;2024-02-26T12:44:38;100864.38;;;8.08;81.10
84935;BME280;75205;53.820;10.730;2024-02-26T12:47:05;100856.28;;;8.00;80.50
84935;BME280;75205;53.820;10.730;2024-02-26T12:49:31;100864.72;;;7.86;80.52
84935;BME280;75205;53.820;10.730;2024-02-26T12:51:58;100864.97;;;7.76;82.02
84935;BME280;75205;53.820;10.730;2024-02-26T12:54:29;100875.69;;;7.85;81.42